createdAt,value
2015-11-30T00:00:39.098Z,8.1
2015-11-30T00:01:39.036Z,8.1
2015-11-30T00:02:38.975Z,8.1
2015-11-30T00:03:38.916Z,8.2
2015-11-30T00:04:38.873Z,8.1
2015-11-30T00:05:38.812Z,8.2
2015-11-30T00:06:38.752Z,8.2
2015-11-30T00:07:38.692Z,8.2
2015-11-30T00:08:38.648Z,8.2
2015-11-30T00:09:38.589Z,8.2
2015-11-30T00:10:38.529Z,8.2
2015-11-30T00:11:38.485Z,8.2
2015-11-30T00:12:38.425Z,8.2
2015-11-30T00:13:38.365Z,8.3
2015-11-30T00:14:38.306Z,8.3
2015-11-30T00:15:38.262Z,8.3
2015-11-30T00:16:38.202Z,8.4
2015-11-30T00:17:38.142Z,8.4
2015-11-30T00:18:38.098Z,8.4
2015-11-30T00:19:38.039Z,8.4
2015-11-30T00:20:37.978Z,8.5
2015-11-30T00:21:37.935Z,8.5
2015-11-30T00:22:37.875Z,8.4
2015-11-30T00:23:37.814Z,8.5
2015-11-30T00:24:37.756Z,8.5
2015-11-30T00:25:37.711Z,8.6
2015-11-30T00:26:37.651Z,8.6
2015-11-30T00:27:37.592Z,8.5
2015-11-30T00:28:37.532Z,8.5
2015-11-30T00:29:37.489Z,8.5
2015-11-30T00:30:37.428Z,8.5
2015-11-30T00:31:37.384Z,8.5
2015-11-30T00:32:37.324Z,8.5
2015-11-30T00:33:37.264Z,8.5
2015-11-30T00:34:37.205Z,8.4
2015-11-30T00:35:37.161Z,8.4
2015-11-30T00:36:37.100Z,8.4
2015-11-30T00:37:37.041Z,8.4
2015-11-30T00:38:36.981Z,8.4
2015-11-30T00:39:36.937Z,8.4
2015-11-30T00:40:36.878Z,8.4
2015-11-30T00:41:36.818Z,8.4
2015-11-30T00:42:36.756Z,8.4
2015-11-30T00:43:36.711Z,8.4
2015-11-30T00:44:36.652Z,8.4
2015-11-30T00:45:36.591Z,8.5
2015-11-30T00:46:36.532Z,8.5
2015-11-30T00:47:36.488Z,8.5
2015-11-30T00:48:36.428Z,8.5
2015-11-30T00:49:36.369Z,8.6
2015-11-30T00:50:36.324Z,8.6
2015-11-30T00:51:36.264Z,8.6
2015-11-30T00:52:36.205Z,8.6
2015-11-30T00:53:36.161Z,8.6
2015-11-30T00:54:36.100Z,8.6
2015-11-30T00:55:36.041Z,8.5
2015-11-30T00:56:35.981Z,8.6
2015-11-30T00:57:35.938Z,8.5
2015-11-30T00:58:35.878Z,8.6
2015-11-30T00:59:35.818Z,8.5
2015-11-30T01:00:35.758Z,8.5
2015-11-30T01:01:35.715Z,8.4
2015-11-30T01:02:35.655Z,8.4
2015-11-30T01:03:35.611Z,8.5
2015-11-30T01:04:35.548Z,8.5
2015-11-30T01:05:35.489Z,8.5
2015-11-30T01:06:35.429Z,8.5
2015-11-30T01:07:35.384Z,8.4
2015-11-30T01:08:35.325Z,8.4
2015-11-30T01:09:35.265Z,8.4
2015-11-30T01:10:35.205Z,8.4
2015-11-30T01:11:35.162Z,8.4
2015-11-30T01:12:35.103Z,8.4
2015-11-30T01:13:35.043Z,8.4
2015-11-30T01:14:34.998Z,8.4
2015-11-30T01:15:34.939Z,8.4
2015-11-30T01:16:34.879Z,8.4
2015-11-30T01:17:34.819Z,8.4
2015-11-30T01:18:34.775Z,8.4
2015-11-30T01:19:34.731Z,8.4
2015-11-30T01:20:34.655Z,8.4
2015-11-30T01:21:34.595Z,8.4
2015-11-30T01:22:34.536Z,8.3
2015-11-30T01:23:34.476Z,8.4
2015-11-30T01:24:34.429Z,8.3
2015-11-30T01:25:34.318Z,8.3
2015-11-30T01:26:34.237Z,8.3
2015-11-30T01:27:34.173Z,8.3
2015-11-30T01:28:34.104Z,8.3
2015-11-30T01:29:34.038Z,8.3
2015-11-30T01:30:33.987Z,8.3
2015-11-30T01:31:33.919Z,8.3
2015-11-30T01:32:33.853Z,8.3
2015-11-30T01:33:33.790Z,8.3
2015-11-30T01:34:33.743Z,8.3
2015-11-30T01:35:33.681Z,8.3
2015-11-30T01:36:33.618Z,8.3
2015-11-30T01:37:33.572Z,8.3
2015-11-30T01:38:33.511Z,8.2
2015-11-30T01:39:33.450Z,8.3
2015-11-30T01:40:33.390Z,8.3
2015-11-30T01:41:33.328Z,8.2
2015-11-30T01:42:33.285Z,8.2
2015-11-30T01:43:33.225Z,8.2
2015-11-30T01:44:33.180Z,8.2
2015-11-30T01:45:33.118Z,8.3
2015-11-30T01:46:33.057Z,8.2
2015-11-30T01:47:32.998Z,8.3
2015-11-30T01:48:32.953Z,8.3
2015-11-30T01:49:32.892Z,8.3
2015-11-30T01:50:32.833Z,8.3
2015-11-30T01:51:32.773Z,8.3
2015-11-30T01:52:32.729Z,8.3
2015-11-30T01:53:32.670Z,8.3
2015-11-30T01:54:32.609Z,8.3
2015-11-30T01:55:32.550Z,8.3
2015-11-30T01:56:32.506Z,8.2
2015-11-30T01:57:32.448Z,8.2
2015-11-30T01:58:32.387Z,8.2
2015-11-30T01:59:32.330Z,8.2
2015-11-30T02:00:32.272Z,8.3
2015-11-30T02:01:32.228Z,8.3
2015-11-30T02:02:32.168Z,8.3
2015-11-30T02:03:32.107Z,8.3
2015-11-30T02:04:32.049Z,8.3
2015-11-30T02:05:32.004Z,8.3
2015-11-30T02:06:31.944Z,8.3
2015-11-30T02:07:31.885Z,8.3
2015-11-30T02:08:31.841Z,8.3
2015-11-30T02:09:31.781Z,8.2
2015-11-30T02:10:31.721Z,8.3
2015-11-30T02:11:31.658Z,8.3
2015-11-30T02:12:31.614Z,8.3
2015-11-30T02:13:31.555Z,8.3
2015-11-30T02:14:31.495Z,8.4
2015-11-30T02:15:31.451Z,8.4
2015-11-30T02:16:31.391Z,8.3
2015-11-30T02:17:31.332Z,8.3
2015-11-30T02:18:31.271Z,8.2
2015-11-30T02:19:31.212Z,8.2
2015-11-30T02:20:31.168Z,8.2
2015-11-30T02:21:31.108Z,8.2
2015-11-30T02:22:31.049Z,8.3
2015-11-30T02:23:30.989Z,8.3
2015-11-30T02:24:30.945Z,8.3
2015-11-30T02:25:30.885Z,8.3
2015-11-30T02:26:30.825Z,8.4
2015-11-30T02:27:30.766Z,8.3
2015-11-30T02:28:30.722Z,8.2
2015-11-30T02:29:30.661Z,8
2015-11-30T02:30:30.602Z,7.8
2015-11-30T02:31:30.542Z,7.6
2015-11-30T02:32:30.482Z,7.5
2015-11-30T02:33:30.423Z,7.3
2015-11-30T02:34:30.379Z,7.3
2015-11-30T02:35:30.320Z,7.2
2015-11-30T02:36:30.260Z,7.1
2015-11-30T02:37:30.200Z,7.1
2015-11-30T02:38:36.406Z,7.1
2015-11-30T02:39:30.096Z,7.1
2015-11-30T02:40:30.036Z,7
2015-11-30T02:41:29.976Z,7
2015-11-30T02:42:29.913Z,6.9
2015-11-30T02:43:29.869Z,7
2015-11-30T02:44:29.825Z,7.1
2015-11-30T02:45:29.750Z,7.1
2015-11-30T02:46:29.691Z,7.2
2015-11-30T02:47:29.630Z,7.3
2015-11-30T02:48:29.586Z,7.4
2015-11-30T02:49:29.527Z,7.4
2015-11-30T02:50:29.467Z,7.4
2015-11-30T02:51:29.407Z,7.4
2015-11-30T02:52:29.347Z,7.4
2015-11-30T02:53:29.304Z,7.4
2015-11-30T02:54:29.243Z,7.5
2015-11-30T02:55:29.184Z,7.5
2015-11-30T02:56:29.123Z,7.5
2015-11-30T02:57:29.079Z,7.5
2015-11-30T02:58:29.020Z,7.4
2015-11-30T02:59:28.960Z,7.4
2015-11-30T03:00:28.907Z,7.4
2015-11-30T03:01:28.847Z,7.5
2015-11-30T03:02:28.803Z,7.5
2015-11-30T03:03:28.744Z,7.6
2015-11-30T03:04:28.683Z,7.6
2015-11-30T03:05:28.624Z,7.6
2015-11-30T03:06:28.563Z,7.6
2015-11-30T03:07:28.519Z,7.6
2015-11-30T03:08:28.460Z,7.6
2015-11-30T03:09:28.400Z,7.6
2015-11-30T03:10:28.340Z,7.6
2015-11-30T03:11:28.296Z,7.6
2015-11-30T03:12:28.235Z,7.6
2015-11-30T03:13:28.177Z,7.6
2015-11-30T03:14:28.148Z,7.6
2015-11-30T03:15:28.073Z,7.6
2015-11-30T03:16:28.013Z,7.6
2015-11-30T03:17:27.954Z,7.6
2015-11-30T03:18:27.894Z,7.7
2015-11-30T03:19:27.834Z,7.6
2015-11-30T03:20:27.790Z,7.6
2015-11-30T03:21:27.730Z,7.6
2015-11-30T03:22:27.671Z,7.6
2015-11-30T03:23:27.626Z,7.6
2015-11-30T03:24:27.551Z,7.6
2015-11-30T03:25:27.507Z,7.6
2015-11-30T03:26:27.446Z,7.6
2015-11-30T03:27:27.387Z,7.7
2015-11-30T03:28:27.327Z,7.6
2015-11-30T03:29:27.268Z,7.5
2015-11-30T03:30:27.223Z,7.5
2015-11-30T03:31:27.163Z,7.6
2015-11-30T03:32:27.103Z,7.6
2015-11-30T03:33:27.043Z,7.6
2015-11-30T03:34:26.984Z,7.6
2015-11-30T03:35:26.924Z,7.6
2015-11-30T03:36:26.881Z,7.6
2015-11-30T03:37:26.820Z,7.5
2015-11-30T03:38:26.758Z,7.5
2015-11-30T03:39:26.697Z,7.5
2015-11-30T03:40:26.653Z,7.6
2015-11-30T03:41:26.595Z,7.6
2015-11-30T03:42:26.534Z,7.5
2015-11-30T03:43:26.506Z,7.5
2015-11-30T03:44:26.414Z,7.5
2015-11-30T03:45:26.370Z,7.5
2015-11-30T03:46:26.311Z,7.5
2015-11-30T03:47:26.251Z,7.4
2015-11-30T03:48:26.191Z,7.4
2015-11-30T03:49:26.131Z,7.4
2015-11-30T03:50:26.087Z,7.4
2015-11-30T03:51:26.028Z,7.4
2015-11-30T03:52:25.967Z,7.4
2015-11-30T03:53:25.908Z,7.4
2015-11-30T03:54:25.864Z,7.4
2015-11-30T03:55:25.805Z,7.4
2015-11-30T03:56:25.761Z,7.4
2015-11-30T03:57:25.686Z,7.4
2015-11-30T03:58:25.641Z,7.5
2015-11-30T03:59:25.581Z,7.5
2015-11-30T04:00:25.521Z,7.6
2015-11-30T04:01:25.461Z,7.6
2015-11-30T04:02:25.418Z,7.5
2015-11-30T04:03:25.342Z,7.5
2015-11-30T04:04:25.298Z,7.6
2015-11-30T04:05:25.240Z,7.5
2015-11-30T04:06:25.179Z,7.6
2015-11-30T04:07:25.120Z,7.6
2015-11-30T04:08:25.076Z,7.6
2015-11-30T04:09:25.015Z,7.6
2015-11-30T04:10:24.956Z,7.6
2015-11-30T04:11:24.893Z,7.5
2015-11-30T04:12:24.865Z,7.5
2015-11-30T04:13:24.790Z,7.5
2015-11-30T04:14:24.730Z,7.5
2015-11-30T04:15:24.779Z,7.5
2015-11-30T04:16:24.610Z,7.6
2015-11-30T04:17:24.550Z,7.6
2015-11-30T04:18:24.490Z,7.6
2015-11-30T04:19:24.446Z,7.6
2015-11-30T04:20:24.386Z,7.6
2015-11-30T04:21:24.342Z,7.6
2015-11-30T04:22:24.282Z,7.6
2015-11-30T04:23:24.207Z,7.6
2015-11-30T04:24:24.272Z,7.5
2015-11-30T04:25:24.103Z,7.5
2015-11-30T04:26:24.043Z,7.6
2015-11-30T04:27:23.983Z,7.6
2015-11-30T04:28:23.938Z,7.6
2015-11-30T04:29:23.879Z,7.6
2015-11-30T04:30:23.930Z,7.6
2015-11-30T04:31:23.760Z,7.6
2015-11-30T04:32:23.699Z,7.6
2015-11-30T04:33:23.656Z,7.5
2015-11-30T04:34:23.612Z,7.5
2015-11-30T04:35:23.537Z,7.6
2015-11-30T04:36:23.476Z,7.5
2015-11-30T04:37:23.432Z,7.5
2015-11-30T04:38:23.373Z,7.6
2015-11-30T04:39:23.312Z,7.6
2015-11-30T04:40:23.253Z,7.6
2015-11-30T04:41:23.193Z,7.6
2015-11-30T04:42:23.134Z,7.6
2015-11-30T04:43:23.089Z,7.6
2015-11-30T04:44:23.029Z,7.6
2015-11-30T04:45:22.970Z,7.6
2015-11-30T04:46:22.910Z,7.6
2015-11-30T04:47:22.851Z,7.6
2015-11-30T04:48:22.807Z,7.6
2015-11-30T04:49:22.746Z,7.6
2015-11-30T04:50:22.687Z,7.6
2015-11-30T04:51:22.626Z,7.6
2015-11-30T04:52:22.583Z,7.6
2015-11-30T04:53:22.523Z,7.5
2015-11-30T04:54:22.464Z,7.6
2015-11-30T04:55:22.404Z,7.6
2015-11-30T04:56:22.359Z,7.6
2015-11-30T04:57:22.300Z,7.6
2015-11-30T04:58:22.240Z,7.5
2015-11-30T04:59:22.180Z,7.5
2015-11-30T05:00:22.120Z,7.5
2015-11-30T05:01:22.076Z,7.5
2015-11-30T05:02:22.017Z,7.5
2015-11-30T05:03:21.973Z,7.5
2015-11-30T05:04:21.897Z,7.5
2015-11-30T05:05:21.853Z,7.4
2015-11-30T05:06:21.792Z,7.4
2015-11-30T05:07:21.734Z,7.4
2015-11-30T05:08:21.673Z,7.4
2015-11-30T05:09:21.613Z,7.4
2015-11-30T05:10:21.554Z,7.4
2015-11-30T05:11:21.510Z,7.5
2015-11-30T05:12:21.450Z,7.5
2015-11-30T05:13:21.391Z,7.4
2015-11-30T05:14:21.347Z,7.4
2015-11-30T05:15:21.286Z,7.4
2015-11-30T05:16:21.227Z,7.4
2015-11-30T05:17:21.164Z,7.3
2015-11-30T05:18:21.119Z,7.3
2015-11-30T05:19:21.044Z,7.3
2015-11-30T05:20:21.000Z,7.3
2015-11-30T05:21:20.941Z,7.2
2015-11-30T05:22:20.881Z,7.3
2015-11-30T05:23:20.821Z,7.3
2015-11-30T05:24:20.778Z,7.3
2015-11-30T05:25:20.717Z,7.3
2015-11-30T05:26:20.657Z,7.2
2015-11-30T05:27:20.597Z,7.3
2015-11-30T05:28:20.539Z,7.2
2015-11-30T05:29:20.494Z,7.3
2015-11-30T05:30:20.434Z,7.2
2015-11-30T05:31:20.375Z,7.2
2015-11-30T05:32:20.315Z,7.3
2015-11-30T05:33:20.270Z,7.3
2015-11-30T05:34:20.210Z,7.3
2015-11-30T05:35:20.151Z,7.3
2015-11-30T05:36:20.091Z,7.3
2015-11-30T05:37:20.031Z,7.3
2015-11-30T05:38:19.987Z,7.2
2015-11-30T05:39:19.927Z,7.2
2015-11-30T05:40:19.867Z,7.2
2015-11-30T05:41:19.808Z,7.2
2015-11-30T05:42:19.749Z,7.2
2015-11-30T05:43:19.704Z,7.3
2015-11-30T05:44:19.629Z,7.2
2015-11-30T05:45:19.585Z,7.2
2015-11-30T05:46:19.566Z,7.3
2015-11-30T05:47:19.481Z,7.2
2015-11-30T05:48:19.702Z,7.2
2015-11-30T05:49:19.434Z,7.3
2015-11-30T05:50:19.296Z,7.3
2015-11-30T05:51:19.237Z,7.3
2015-11-30T05:52:19.193Z,7.1
2015-11-30T05:53:19.133Z,6.8
2015-11-30T05:54:19.074Z,6.5
2015-11-30T05:55:19.014Z,6.3
2015-11-30T05:56:18.954Z,6.4
2015-11-30T05:57:18.891Z,6.4
2015-11-30T05:58:18.832Z,6.2
2015-11-30T05:59:18.772Z,6
2015-11-30T06:00:18.713Z,6
2015-11-30T06:01:18.668Z,6
2015-11-30T06:02:18.608Z,5.8
2015-11-30T06:03:18.548Z,5.8
2015-11-30T06:04:18.489Z,5.9
2015-11-30T06:05:18.429Z,5.9
2015-11-30T06:06:18.385Z,6
2015-11-30T06:07:18.310Z,6
2015-11-30T06:08:18.249Z,6
2015-11-30T06:09:18.206Z,6.1
2015-11-30T06:10:18.147Z,6.1
2015-11-30T06:11:18.087Z,6
2015-11-30T06:12:18.044Z,6.1
2015-11-30T06:13:17.968Z,6.1
2015-11-30T06:14:17.924Z,6.1
2015-11-30T06:15:17.864Z,6.1
2015-11-30T06:16:17.819Z,6.2
2015-11-30T06:17:17.744Z,6.3
2015-11-30T06:18:17.685Z,6.3
2015-11-30T06:19:17.624Z,6.4
2015-11-30T06:20:17.580Z,6.4
2015-11-30T06:21:17.521Z,6.5
2015-11-30T06:22:17.461Z,6.5
2015-11-30T06:23:17.402Z,6.6
2015-11-30T06:24:17.342Z,6.6
2015-11-30T06:25:17.280Z,6.7
2015-11-30T06:26:17.236Z,6.7
2015-11-30T06:27:17.175Z,6.6
2015-11-30T06:28:17.115Z,6.6
2015-11-30T06:29:17.055Z,6.6
2015-11-30T06:30:16.996Z,6.5
2015-11-30T06:31:16.952Z,6.5
2015-11-30T06:32:16.876Z,6.4
2015-11-30T06:33:16.833Z,6.4
2015-11-30T06:34:16.773Z,6.3
2015-11-30T06:35:16.713Z,6.2
2015-11-30T06:36:16.653Z,6.2
2015-11-30T06:37:16.593Z,6.1
2015-11-30T06:38:16.549Z,6.1
2015-11-30T06:39:16.489Z,6
2015-11-30T06:40:16.429Z,6
2015-11-30T06:41:16.370Z,6
2015-11-30T06:42:16.326Z,6
2015-11-30T06:43:16.251Z,6
2015-11-30T06:44:16.206Z,6
2015-11-30T06:45:16.146Z,6
2015-11-30T06:46:16.087Z,6.1
2015-11-30T06:47:16.027Z,6.1
2015-11-30T06:48:15.967Z,6.1
2015-11-30T06:49:15.924Z,6.1
2015-11-30T06:50:15.863Z,6.2
2015-11-30T06:51:15.804Z,6.2
2015-11-30T06:52:15.744Z,6.2
2015-11-30T06:53:15.684Z,6.3
2015-11-30T06:54:15.639Z,6.2
2015-11-30T06:55:15.581Z,6.3
2015-11-30T06:56:15.520Z,6.3
2015-11-30T06:57:15.461Z,6.4
2015-11-30T06:58:15.400Z,6.3
2015-11-30T06:59:15.356Z,6.4
2015-11-30T07:00:15.297Z,6.4
2015-11-30T07:01:15.236Z,6.4
2015-11-30T07:02:15.177Z,6.4
2015-11-30T07:03:15.117Z,6.4
2015-11-30T07:04:15.058Z,6.4
2015-11-30T07:05:15.013Z,6.4
2015-11-30T07:06:14.954Z,6.4
2015-11-30T07:07:14.894Z,6.5
2015-11-30T07:08:14.833Z,6.4
2015-11-30T07:09:14.775Z,6.4
2015-11-30T07:10:14.731Z,6.4
2015-11-30T07:11:14.670Z,6.4
2015-11-30T07:12:14.627Z,6.4
2015-11-30T07:13:14.550Z,6.5
2015-11-30T07:14:14.491Z,6.5
2015-11-30T07:15:14.447Z,6.5
2015-11-30T07:16:14.388Z,6.5
2015-11-30T07:17:14.328Z,6.5
2015-11-30T07:18:14.268Z,6.5
2015-11-30T07:19:14.208Z,6.5
2015-11-30T07:20:14.148Z,6.5
2015-11-30T07:21:14.104Z,6.5
2015-11-30T07:22:14.044Z,6.5
2015-11-30T07:23:13.984Z,6.6
2015-11-30T07:24:13.924Z,6.6
2015-11-30T07:25:13.865Z,6.5
2015-11-30T07:26:13.805Z,6.6
2015-11-30T07:27:13.761Z,6.6
2015-11-30T07:28:13.702Z,6.5
2015-11-30T07:29:13.641Z,6.6
2015-11-30T07:30:13.581Z,6.5
2015-11-30T07:31:13.522Z,6.5
2015-11-30T07:32:13.463Z,6.6
2015-11-30T07:33:13.418Z,6.5
2015-11-30T07:34:13.358Z,6.5
2015-11-30T07:35:13.296Z,6.5
2015-11-30T07:36:13.236Z,6.5
2015-11-30T07:37:13.176Z,6.5
2015-11-30T07:38:13.116Z,6.5
2015-11-30T07:39:13.072Z,6.5
2015-11-30T07:40:13.012Z,6.4
2015-11-30T07:41:12.953Z,6.4
2015-11-30T07:42:12.893Z,6.5
2015-11-30T07:43:12.849Z,6.5
2015-11-30T07:44:12.774Z,6.5
2015-11-30T07:45:12.715Z,6.6
2015-11-30T07:46:12.655Z,6.6
2015-11-30T07:47:12.610Z,6.6
2015-11-30T07:48:12.551Z,6.6
2015-11-30T07:49:12.491Z,6.5
2015-11-30T07:50:12.432Z,6.6
2015-11-30T07:51:12.371Z,6.6
2015-11-30T07:52:12.312Z,6.6
2015-11-30T07:53:12.268Z,6.6
2015-11-30T07:54:12.208Z,6.6
2015-11-30T07:55:12.149Z,6.8
2015-11-30T07:56:12.088Z,6.9
2015-11-30T07:57:12.029Z,6.9
2015-11-30T07:58:11.969Z,6.9
2015-11-30T07:59:11.907Z,6.8
2015-11-30T08:00:11.852Z,6.7
2015-11-30T08:01:11.808Z,6.8
2015-11-30T08:02:11.749Z,6.9
2015-11-30T08:03:11.688Z,6.8
2015-11-30T08:04:11.630Z,6.7
2015-11-30T08:05:11.569Z,6.7
2015-11-30T08:06:11.510Z,6.7
2015-11-30T08:07:11.450Z,6.7
2015-11-30T08:08:11.406Z,6.6
2015-11-30T08:09:11.347Z,6.7
2015-11-30T08:10:11.302Z,6.7
2015-11-30T08:11:11.227Z,6.8
2015-11-30T08:12:11.167Z,6.8
2015-11-30T08:13:11.123Z,6.8
2015-11-30T08:14:11.063Z,6.9
2015-11-30T08:15:11.004Z,6.9
2015-11-30T08:16:10.944Z,7
2015-11-30T08:17:10.886Z,7.2
2015-11-30T08:18:10.841Z,7.8
2015-11-30T08:19:10.781Z,8.1
2015-11-30T08:20:10.722Z,7.8
2015-11-30T08:21:10.659Z,7.9
2015-11-30T08:22:10.615Z,8.2
2015-11-30T08:23:10.555Z,8.2
2015-11-30T08:24:10.495Z,8.2
2015-11-30T08:25:10.451Z,7.9
2015-11-30T08:26:10.391Z,7.8
2015-11-30T08:27:10.331Z,8.2
2015-11-30T08:28:10.272Z,8.4
2015-11-30T08:29:10.227Z,8.8
2015-11-30T08:30:10.169Z,8.9
2015-11-30T08:31:10.109Z,8.6
2015-11-30T08:32:10.049Z,8.2
2015-11-30T08:33:10.005Z,8.1
2015-11-30T08:34:09.975Z,7.9
2015-11-30T08:35:09.900Z,7.6
2015-11-30T08:36:09.825Z,7.5
2015-11-30T08:37:09.780Z,7.5
2015-11-30T08:38:09.721Z,7.8
2015-11-30T08:39:09.694Z,8
2015-11-30T08:40:09.618Z,8.3
2015-11-30T08:41:09.559Z,8
2015-11-30T08:42:09.499Z,8.3
2015-11-30T08:43:09.455Z,8.7
2015-11-30T08:44:09.392Z,8.6
2015-11-30T08:45:09.334Z,8.9
2015-11-30T08:46:09.289Z,9
2015-11-30T08:47:09.229Z,8.8
2015-11-30T08:48:09.170Z,9
2015-11-30T08:49:09.126Z,9
2015-11-30T08:50:09.065Z,8.7
2015-11-30T08:51:09.005Z,8.3
2015-11-30T08:52:08.961Z,8.4
2015-11-30T08:53:08.901Z,8.3
2015-11-30T08:54:08.859Z,8.2
2015-11-30T08:55:08.782Z,8.9
2015-11-30T08:56:08.723Z,8.8
2015-11-30T08:57:08.679Z,8.4
2015-11-30T08:58:08.619Z,8
2015-11-30T08:59:08.559Z,8.2
2015-11-30T09:00:08.516Z,7.9
2015-11-30T09:01:08.456Z,7.5
2015-11-30T09:02:08.396Z,7.4
2015-11-30T09:03:08.352Z,7.5
2015-11-30T09:04:08.292Z,7.4
2015-11-30T09:05:08.248Z,7.4
2015-11-30T09:06:08.173Z,7.4
2015-11-30T09:07:08.113Z,7.4
2015-11-30T09:08:08.068Z,7.3
2015-11-30T09:09:08.009Z,7.2
2015-11-30T09:10:07.965Z,7.2
2015-11-30T09:11:07.890Z,7.2
2015-11-30T09:12:07.845Z,7.3
2015-11-30T09:13:07.770Z,7.2
2015-11-30T09:14:07.726Z,7.3
2015-11-30T09:15:07.667Z,7.4
2015-11-30T09:16:07.607Z,7.4
2015-11-30T09:17:07.560Z,7.2
2015-11-30T09:18:07.500Z,7.2
2015-11-30T09:19:07.440Z,7.3
2015-11-30T09:20:07.381Z,7.2
2015-11-30T09:21:07.320Z,7.3
2015-11-30T09:22:07.262Z,7.3
2015-11-30T09:23:07.218Z,7.3
2015-11-30T09:24:07.157Z,7.3
2015-11-30T09:25:07.098Z,7.4
2015-11-30T09:26:07.038Z,7.4
2015-11-30T09:27:06.994Z,7.4
2015-11-30T09:28:06.935Z,7.3
2015-11-30T09:29:06.874Z,7.2
2015-11-30T09:30:06.815Z,7.1
2015-11-30T09:31:06.755Z,7.2
2015-11-30T09:32:06.696Z,7.2
2015-11-30T09:33:06.635Z,7.3
2015-11-30T09:34:06.592Z,7.2
2015-11-30T09:35:06.532Z,7.2
2015-11-30T09:36:06.473Z,7.2
2015-11-30T09:37:06.412Z,7.3
2015-11-30T09:38:06.353Z,7.4
2015-11-30T09:39:06.292Z,7.4
2015-11-30T09:40:06.234Z,7.4
2015-11-30T09:41:06.189Z,7.3
2015-11-30T09:42:06.128Z,7.3
2015-11-30T09:43:06.070Z,7.2
2015-11-30T09:44:06.007Z,7.2
2015-11-30T09:45:05.947Z,7.2
2015-11-30T09:46:05.887Z,7.2
2015-11-30T09:47:05.843Z,7.1
2015-11-30T09:48:05.784Z,7.1
2015-11-30T09:49:05.724Z,7.2
2015-11-30T09:50:05.679Z,7.2
2015-11-30T09:51:05.604Z,7.2
2015-11-30T09:52:05.560Z,7.2
2015-11-30T09:53:05.500Z,7.2
2015-11-30T09:54:05.441Z,7.3
2015-11-30T09:55:05.382Z,7.3
2015-11-30T09:56:05.321Z,7.3
2015-11-30T09:57:05.277Z,7.2
2015-11-30T09:58:05.218Z,7.3
2015-11-30T09:59:05.158Z,7.3
2015-11-30T10:00:05.114Z,7.3
2015-11-30T10:01:05.054Z,7.3
2015-11-30T10:02:04.994Z,7.3
2015-11-30T10:03:04.934Z,7.3
2015-11-30T10:04:04.874Z,7.3
2015-11-30T10:05:04.815Z,7.2
2015-11-30T10:06:04.771Z,7.1
2015-11-30T10:07:04.696Z,7.2
2015-11-30T10:08:04.651Z,7.2
2015-11-30T10:09:04.592Z,7.2
2015-11-30T10:10:04.532Z,7.1
2015-11-30T10:11:04.472Z,7.2
2015-11-30T10:12:04.412Z,7.2
2015-11-30T10:13:04.368Z,7.1
2015-11-30T10:14:04.309Z,7.1
2015-11-30T10:15:04.265Z,7.1
2015-11-30T10:16:04.189Z,7.1
2015-11-30T10:17:04.129Z,7.2
2015-11-30T10:18:04.069Z,7.1
2015-11-30T10:19:04.025Z,7.1
2015-11-30T10:20:03.966Z,7.1
2015-11-30T10:21:03.906Z,7.1
2015-11-30T10:22:03.847Z,7.1
2015-11-30T10:23:03.787Z,7.2
2015-11-30T10:24:03.742Z,7.2
2015-11-30T10:25:03.683Z,7.2
2015-11-30T10:26:03.622Z,7.2
2015-11-30T10:27:03.563Z,7.2
2015-11-30T10:28:03.500Z,7.1
2015-11-30T10:29:03.456Z,7.1
2015-11-30T10:30:03.388Z,7.1
2015-11-30T10:31:03.316Z,7.1
2015-11-30T10:32:03.245Z,7.1
2015-11-30T10:33:03.188Z,7.1
2015-11-30T10:34:03.115Z,7.1
2015-11-30T10:35:03.049Z,7.1
2015-11-30T10:36:02.984Z,7.1
2015-11-30T10:37:02.921Z,7.1
2015-11-30T10:38:02.857Z,7.1
2015-11-30T10:39:02.809Z,7.1
2015-11-30T10:40:02.746Z,7.1
2015-11-30T10:41:02.686Z,7.1
2015-11-30T10:42:02.624Z,7.1
2015-11-30T10:43:02.563Z,7.2
2015-11-30T10:44:02.501Z,7.2
2015-11-30T10:45:02.456Z,7.2
2015-11-30T10:46:02.396Z,7.2
2015-11-30T10:47:02.336Z,7.2
2015-11-30T10:48:02.275Z,7.1
2015-11-30T10:49:02.230Z,7.1
2015-11-30T10:50:02.156Z,7.1
2015-11-30T10:51:02.112Z,7.2
2015-11-30T10:52:02.051Z,7.1
2015-11-30T10:53:02.006Z,7.1
2015-11-30T10:54:01.931Z,7.1
2015-11-30T10:55:01.887Z,7.1
2015-11-30T10:56:01.828Z,7.1
2015-11-30T10:57:01.765Z,7.2
2015-11-30T10:58:01.706Z,7.1
2015-11-30T10:59:01.646Z,7
2015-11-30T11:00:01.586Z,7.1
2015-11-30T11:01:01.542Z,7.1
2015-11-30T11:02:01.483Z,7.2
2015-11-30T11:03:01.422Z,7.1
2015-11-30T11:04:01.364Z,7.1
2015-11-30T11:05:01.319Z,7.1
2015-11-30T11:06:01.259Z,7.1
2015-11-30T11:07:01.199Z,7.1
2015-11-30T11:08:01.139Z,7.1
2015-11-30T11:09:01.095Z,7.1
2015-11-30T11:10:01.020Z,7.1
2015-11-30T11:11:00.975Z,7.1
2015-11-30T11:12:00.916Z,7.1
2015-11-30T11:13:00.856Z,7.1
2015-11-30T11:14:00.797Z,7.2
2015-11-30T11:15:00.753Z,7.2
2015-11-30T11:16:00.692Z,7.2
2015-11-30T11:17:00.633Z,7.2
2015-11-30T11:18:00.572Z,7.2
2015-11-30T11:19:00.514Z,7.2
2015-11-30T11:20:00.454Z,7.2
2015-11-30T11:21:00.395Z,7.2
2015-11-30T11:22:00.351Z,7.2
2015-11-30T11:23:00.289Z,7.2
2015-11-30T11:24:00.228Z,7.2
2015-11-30T11:25:00.309Z,7.1
2015-11-30T11:26:00.109Z,7.1
2015-11-30T11:27:00.064Z,7.2
2015-11-30T11:28:00.005Z,7.2
2015-11-30T11:28:59.961Z,7.2
2015-11-30T11:29:59.901Z,7.2
2015-11-30T11:30:59.842Z,7.2
2015-11-30T11:31:59.781Z,7.2
2015-11-30T11:32:59.722Z,7.2
2015-11-30T11:33:59.662Z,7.2
2015-11-30T11:34:59.618Z,7.2
2015-11-30T11:35:59.558Z,7.2
2015-11-30T11:36:59.498Z,7.2
2015-11-30T11:37:59.439Z,7.2
2015-11-30T11:38:59.379Z,7.2
2015-11-30T11:39:59.320Z,7.1
2015-11-30T11:40:59.275Z,7.1
2015-11-30T11:41:59.216Z,7.1
2015-11-30T11:42:59.155Z,7.2
2015-11-30T11:43:59.096Z,7.1
2015-11-30T11:44:59.036Z,7.1
2015-11-30T11:45:58.991Z,7.1
2015-11-30T11:46:58.933Z,7.1
2015-11-30T11:47:58.872Z,7
2015-11-30T11:48:58.813Z,7.1
2015-11-30T11:49:58.753Z,7.1
2015-11-30T11:50:58.709Z,7.1
2015-11-30T11:51:58.649Z,7.1
2015-11-30T11:52:58.605Z,7.1
2015-11-30T11:53:58.530Z,7.1
2015-11-30T11:54:58.485Z,7.1
2015-11-30T11:55:58.425Z,7.1
2015-11-30T11:56:58.365Z,7.1
2015-11-30T11:57:58.321Z,7.1
2015-11-30T11:58:58.262Z,7.1
2015-11-30T11:59:58.201Z,7.1
2015-11-30T12:00:58.143Z,7
2015-11-30T12:01:58.098Z,7
2015-11-30T12:02:58.038Z,7
2015-11-30T12:03:57.980Z,7.1
2015-11-30T12:04:57.920Z,7.1
2015-11-30T12:05:57.858Z,7.1
2015-11-30T12:06:57.797Z,7.1
2015-11-30T12:07:57.753Z,7.1
2015-11-30T12:08:57.694Z,7.1
2015-11-30T12:09:57.633Z,7.1
2015-11-30T12:10:57.589Z,7.1
2015-11-30T12:11:57.514Z,7.1
2015-11-30T12:12:57.469Z,7.1
2015-11-30T12:13:57.410Z,7.1
2015-11-30T12:14:57.349Z,7.1
2015-11-30T12:15:57.290Z,7.1
2015-11-30T12:16:57.246Z,7.1
2015-11-30T12:17:57.187Z,7.1
2015-11-30T12:18:57.142Z,7.1
2015-11-30T12:19:57.068Z,7.1
2015-11-30T12:20:57.007Z,7.2
2015-11-30T12:21:56.979Z,7.1
2015-11-30T12:22:56.919Z,7.1
2015-11-30T12:23:56.843Z,7.1
2015-11-30T12:24:56.785Z,7.1
2015-11-30T12:25:56.724Z,7.1
2015-11-30T12:26:56.681Z,7.1
2015-11-30T12:27:56.622Z,7.1
2015-11-30T12:28:56.562Z,7.1
2015-11-30T12:29:56.515Z,7.1
2015-11-30T12:30:56.439Z,7.1
2015-11-30T12:31:56.395Z,7.1
2015-11-30T12:32:56.336Z,7.1
2015-11-30T12:33:56.277Z,7.1
2015-11-30T12:34:56.219Z,7.1
2015-11-30T12:35:56.156Z,7.2
2015-11-30T12:36:56.113Z,7.1
2015-11-30T12:37:56.052Z,7.1
2015-11-30T12:38:55.992Z,7.1
2015-11-30T12:39:55.933Z,7.1
2015-11-30T12:40:55.876Z,7.1
2015-11-30T12:41:55.814Z,7.1
2015-11-30T12:42:55.771Z,7
2015-11-30T12:43:55.712Z,7.1
2015-11-30T12:44:55.649Z,7
2015-11-30T12:45:55.590Z,7.1
2015-11-30T12:46:55.530Z,7.1
2015-11-30T12:47:55.485Z,7.1
2015-11-30T12:48:55.425Z,7.1
2015-11-30T12:49:55.367Z,7.1
2015-11-30T12:50:55.308Z,7
2015-11-30T12:51:55.264Z,7.1
2015-11-30T12:52:55.203Z,7.1
2015-11-30T12:53:55.144Z,7.1
2015-11-30T12:54:55.084Z,7.1
2015-11-30T12:55:55.025Z,7
2015-11-30T12:56:54.964Z,7.1
2015-11-30T12:57:54.922Z,7
2015-11-30T12:58:54.861Z,7.1
2015-11-30T12:59:54.800Z,7.1
2015-11-30T13:00:54.740Z,7
2015-11-30T13:01:54.681Z,7
2015-11-30T13:02:54.621Z,7
2015-11-30T13:03:54.561Z,7
2015-11-30T13:04:54.519Z,7
2015-11-30T13:05:54.458Z,7.1
2015-11-30T13:06:54.400Z,7
2015-11-30T13:07:54.339Z,7
2015-11-30T13:08:54.294Z,7
2015-11-30T13:09:54.235Z,7
2015-11-30T13:10:54.175Z,7
2015-11-30T13:11:54.116Z,7
2015-11-30T13:12:54.072Z,7
2015-11-30T13:13:54.012Z,7
2015-11-30T13:14:53.952Z,7
2015-11-30T13:15:53.908Z,7
2015-11-30T13:16:53.846Z,7
2015-11-30T13:17:53.786Z,7
2015-11-30T13:18:53.727Z,7
2015-11-30T13:19:53.666Z,7
2015-11-30T13:20:53.623Z,7
2015-11-30T13:21:53.564Z,7
2015-11-30T13:22:53.504Z,6.9
2015-11-30T13:23:53.460Z,7
2015-11-30T13:24:53.398Z,7
2015-11-30T13:25:53.338Z,7
2015-11-30T13:26:53.279Z,7
2015-11-30T13:27:53.218Z,7
2015-11-30T13:28:53.159Z,7
2015-11-30T13:29:53.101Z,7
2015-11-30T13:30:53.056Z,7
2015-11-30T13:31:52.998Z,7
2015-11-30T13:32:52.938Z,7
2015-11-30T13:33:52.876Z,7
2015-11-30T13:34:52.815Z,7
2015-11-30T13:35:52.772Z,7
2015-11-30T13:36:52.712Z,7
2015-11-30T13:37:52.669Z,7
2015-11-30T13:38:52.594Z,7
2015-11-30T13:39:52.535Z,7
2015-11-30T13:40:52.491Z,7
2015-11-30T13:41:52.431Z,7
2015-11-30T13:42:52.371Z,7
2015-11-30T13:43:52.311Z,7
2015-11-30T13:44:52.251Z,7
2015-11-30T13:45:52.207Z,6.9
2015-11-30T13:46:52.147Z,6.9
2015-11-30T13:47:52.102Z,6.8
2015-11-30T13:48:52.027Z,6.8
2015-11-30T13:49:51.968Z,6.8
2015-11-30T13:50:51.924Z,6.8